Thomson Majesty — 9HA2188 — position and weather

sailwx.info

Track history (hours):
 
Tides and Currents Weather Stations Pressure Air Temp Water Temp Dewpoint Dewpoint Depression Visibility Wind Speed Wind Dir Waves Ship Positions

Thomson Majesty

Last reported at 2016-May-24 23:33 UTC. Time now 2016-May-24 23:34 UTC.
Position N 39°18' E 003°14'.

Length 207 m; draft 6.2 m.

Type: Ship. MMSI: 248124000.

Date/timePositionNaut miles runAvg speedWind from/ knotsBaromVisibWave heightAir tempDewpointWater temp
2016-May-24 23:33N 39°18' E 003°14'1515.4
2016-May-24 22:33N 39°17' E 002°54'1615.5
2016-May-24 21:33N 39°28' E 002°40'6 5.9
2016-May-24 20:33N 39°33' E 002°38'0 0.0
2016-May-24 19:33N 39°33' E 002°38'0 0.0
2016-May-24 18:33N 39°33' E 002°38'0 0.0
2016-May-24 17:33N 39°33' E 002°38'0 0.0
2016-May-24 16:33N 39°33' E 002°38'0 0.0
2016-May-24 15:33N 39°33' E 002°38'0 0.0
2016-May-24 14:33N 39°33' E 002°38'0 0.0
2016-May-24 13:33N 39°33' E 002°38'0 0.0
2016-May-24 12:33N 39°33' E 002°38'0 0.0
2016-May-24 11:33N 39°33' E 002°38'0 0.0
2016-May-24 10:33N 39°33' E 002°38'0 0.0
2016-May-24 09:33N 39°33' E 002°38'0 0.0
2016-May-24 08:33N 39°33' E 002°38'0 0.0
2016-May-24 07:33N 39°33' E 002°38'0 0.0
2016-May-24 06:33N 39°33' E 002°38'0 0.0
2016-May-24 05:33N 39°33' E 002°38'0 0.0
2016-May-24 04:33N 39°33' E 002°38'0 0.0
2016-May-24 03:33N 39°33' E 002°38'7 7.0
2016-May-24 02:34N 39°27' E 002°34'1413.8
2016-May-24 01:33N 39°33' E 002°17'1514.7
2016-May-24 00:33N 39°47' E 002°14'1616.2
2016-May-23 23:33N 40°03' E 002°14'1211.6
2016-May-23 22:33N 40°15' E 002°14'1111.3
2016-May-23 21:33N 40°26' E 002°14'1111.0
2016-May-23 20:33N 40°37' E 002°13'1111.1
2016-May-23 19:33N 40°48' E 002°13'1211.9
2016-May-23 18:33N 41°00' E 002°13'1211.8
2016-May-23 17:33N 41°12' E 002°14'1010.4
2016-May-23 16:33N 41°22' E 002°11'0 0.2
2016-May-23 15:24N 41°22' E 002°11'0 0.0
2016-May-23 14:33N 41°22' E 002°11'0 0.0
2016-May-23 13:33N 41°22' E 002°11'157 7.8
2016-May-22 17:33N 43°07' E 004°48'1312.8
2016-May-22 16:33N 43°11' E 005°05'1313.1
2016-May-22 15:33N 43°20' E 005°17'2 1.5
2016-May-22 14:10N 43°21' E 005°20'0 0.0
2016-May-22 13:25N 43°21' E 005°20'0 0.0
2016-May-22 12:28N 43°21' E 005°20'0 0.0
2016-May-22 11:28N 43°21' E 005°20'0 0.0
2016-May-22 10:28N 43°21' E 005°20'0 0.0
2016-May-22 09:31N 43°21' E 005°20'0 0.0
2016-May-22 08:28N 43°21' E 005°20'0 0.0
2016-May-22 07:31N 43°21' E 005°20'0 0.0
2016-May-22 06:31N 43°21' E 005°20'0 0.0
2016-May-22 05:31N 43°21' E 005°20'5 4.7
2016-May-22 04:33N 43°17' E 005°16'2612.1
2016-May-22 02:27N 43°00' E 005°43'1213.4
2016-May-22 01:33N 42°56' E 005°58'1413.5
2016-May-22 00:33N 42°52' E 006°16'1513.8
2016-May-21 23:28N 42°50' E 006°36'1313.3
2016-May-21 22:29N 42°48' E 006°53'1213.1
2016-May-21 21:33N 42°46' E 007°10'1312.7
2016-May-21 20:33N 42°44' E 007°27'1212.3
2016-May-21 19:33N 42°42' E 007°44'1212.1
2016-May-21 18:33N 42°40' E 007°60'1212.4
2016-May-21 17:33N 42°39' E 008°17'1312.5
2016-May-21 16:33N 42°37' E 008°33'10 9.8
2016-May-21 15:33N 42°34' E 008°46'0 0.0
2016-May-21 14:33N 42°34' E 008°46'0 0.0
2016-May-21 13:33N 42°34' E 008°46'0 0.0
2016-May-21 12:33N 42°34' E 008°46'0 0.0
2016-May-21 11:34N 42°34' E 008°46'0 0.0
2016-May-21 10:33N 42°34' E 008°46'0 0.0
2016-May-21 09:34N 42°34' E 008°46'0 0.0
2016-May-21 08:33N 42°34' E 008°46'0 0.0
2016-May-21 07:33N 42°34' E 008°46'0 0.0
2016-May-21 06:33N 42°34' E 008°46'0 0.0
2016-May-21 05:24N 42°34' E 008°46'0 0.1
2016-May-21 04:33N 42°34' E 008°46'9 9.5
2016-May-21 03:33N 42°42' E 008°53'8 8.5
2016-May-21 02:33N 42°49' E 008°60'8 8.2
2016-May-21 01:33N 42°55' E 009°07'8 8.5
2016-May-21 00:33N 43°02' E 009°14'9 8.6
2016-May-20 23:33N 43°07' E 009°23'7 7.4
2016-May-20 22:33N 43°10' E 009°33'7 7.3
2016-May-20 21:33N 43°13' E 009°42'7 7.2
2016-May-20 20:33N 43°16' E 009°51'7 7.3
2016-May-20 19:33N 43°20' E 009°59'8 7.6
2016-May-20 18:33N 43°26' E 010°06'8 7.9
2016-May-20 17:33N 43°31' E 010°14'3 3.3
2016-May-20 16:32N 43°33' E 010°18'0 0.0
2016-May-20 15:32N 43°33' E 010°18'0 0.0
2016-May-20 14:32N 43°33' E 010°18'0 0.0
2016-May-20 13:32N 43°33' E 010°18'0 0.0
2016-May-20 12:32N 43°33' E 010°18'0 0.0
2016-May-20 11:29N 43°33' E 010°18'0 0.0
2016-May-20 10:32N 43°33' E 010°18'0 0.0
2016-May-20 09:32N 43°33' E 010°18'0 0.0
2016-May-20 08:32N 43°33' E 010°18'0 0.0
2016-May-20 07:32N 43°33' E 010°18'0 0.0
2016-May-20 06:32N 43°33' E 010°18'0 0.0
2016-May-20 05:32N 43°33' E 010°18'0 0.0
2016-May-20 04:32N 43°33' E 010°18'5 5.3
2016-May-20 03:33N 43°30' E 010°12'9 8.7
2016-May-20 02:33N 43°30' E 009°60'1110.8
2016-May-20 01:33N 43°31' E 009°45'1110.9
2016-May-20 00:33N 43°32' E 009°30'1110.9
2016-May-19 23:33N 43°33' E 009°15'1212.0
2016-May-19 22:33N 43°34' E 008°58'1212.3
2016-May-19 21:33N 43°35' E 008°41'1312.6
2016-May-19 20:33N 43°36' E 008°24'1312.5
2016-May-19 19:33N 43°37' E 008°07'2311.5
2016-May-19 17:33N 43°39' E 007°35'1211.8
2016-May-19 16:33N 43°40' E 007°19'1 1.3
2016-May-19 15:29N 43°41' E 007°19'0 0.1
2016-May-19 14:17N 43°41' E 007°19'0 0.1
2016-May-19 13:23N 43°41' E 007°19'0 0.2
2016-May-19 12:29N 43°41' E 007°19'0 0.1
2016-May-19 11:29N 43°41' E 007°19'0 0.0
2016-May-19 10:29N 43°41' E 007°19'0 0.0
2016-May-19 09:29N 43°41' E 007°19'0 0.0
2016-May-19 08:29N 43°41' E 007°19'0 0.1
2016-May-19 07:29N 43°41' E 007°19'0 0.1
2016-May-19 06:29N 43°41' E 007°19'0 0.0
2016-May-19 04:33N 43°41' E 007°19'9 8.9
2016-May-19 03:33N 43°33' E 007°16'1111.2
2016-May-19 02:33N 43°24' E 007°06'13811.1
2016-May-18 14:08N 41°44' E 004°57'8011.9
2016-May-18 07:23N 40°46' E 003°43'1111.8
2016-May-18 06:29N 40°38' E 003°34'1111.8
2016-May-18 05:33N 40°30' E 003°24'1211.8
2016-May-18 04:34N 40°21' E 003°13'1212.0
2016-May-18 03:34N 40°13' E 003°02'1212.4
2016-May-18 02:33N 40°04' E 002°51'1212.4
2016-May-18 01:34N 39°55' E 002°40'1211.9
2016-May-18 00:33N 39°46' E 002°29'1211.7
2016-May-17 23:33N 39°38' E 002°19'1010.0
2016-May-17 22:33N 39°29' E 002°24'9 9.4
2016-May-17 21:33N 39°30' E 002°36'3 3.3
2016-May-17 20:31N 39°33' E 002°38'0 0.0
2016-May-17 19:31N 39°33' E 002°38'0 0.0
2016-May-17 18:31N 39°33' E 002°38'0 0.0
2016-May-17 17:31N 39°33' E 002°38'0 0.0
2016-May-17 16:31N 39°33' E 002°38'0 0.0
2016-May-17 15:31N 39°33' E 002°38'0 0.0
2016-May-17 14:31N 39°33' E 002°38'0 0.0
2016-May-17 13:28N 39°33' E 002°38'0 0.0
2016-May-17 12:31N 39°33' E 002°38'0 0.0
2016-May-17 11:31N 39°33' E 002°38'0 0.0
2016-May-17 10:31N 39°33' E 002°38'0 0.0
2016-May-17 09:31N 39°33' E 002°38'0 0.0
2016-May-17 08:31N 39°33' E 002°38'0 0.0
2016-May-17 07:31N 39°33' E 002°38'0 0.0
2016-May-17 06:31N 39°33' E 002°38'0 0.0
2016-May-17 05:28N 39°33' E 002°38'0 0.0
2016-May-17 04:33N 39°33' E 002°38'0 0.0
2016-May-17 03:33N 39°33' E 002°38'9 9.0
2016-May-17 02:33N 39°25' E 002°42'1111.1
2016-May-17 01:33N 39°17' E 002°53'1110.9
2016-May-17 00:33N 39°15' E 003°06'1312.5
2016-May-16 23:29N 39°21' E 003°21'1212.6
2016-May-16 22:33N 39°27' E 003°35'1411.9
2016-May-16 21:21N 39°34' E 003°51'1011.8
2016-May-16 20:31N 39°39' E 004°02'  
Track history (hours):
 
Tides and Currents Weather Stations Pressure Air Temp Water Temp Dewpoint Dewpoint Depression Visibility Wind Speed Wind Dir Waves Ship Positions

Thomson Majesty

Last reported at 2016-May-24 23:33 UTC. Time now 2016-May-24 23:34 UTC.
Position N 39°18' E 003°14'.

Length 207 m; draft 6.2 m.

Type: Ship. MMSI: 248124000.

Date/timePositionNaut miles runAvg speedWind from/ knotsBaromVisibWave heightAir tempDewpointWater temp
2016-May-24 23:33N 39°18' E 003°14'1515.4
2016-May-24 22:33N 39°17' E 002°54'1615.5
2016-May-24 21:33N 39°28' E 002°40'6 5.9
2016-May-24 20:33N 39°33' E 002°38'0 0.0
2016-May-24 19:33N 39°33' E 002°38'0 0.0
2016-May-24 18:33N 39°33' E 002°38'0 0.0
2016-May-24 17:33N 39°33' E 002°38'0 0.0
2016-May-24 16:33N 39°33' E 002°38'0 0.0
2016-May-24 15:33N 39°33' E 002°38'0 0.0
2016-May-24 14:33N 39°33' E 002°38'0 0.0
2016-May-24 13:33N 39°33' E 002°38'0 0.0
2016-May-24 12:33N 39°33' E 002°38'0 0.0
2016-May-24 11:33N 39°33' E 002°38'0 0.0
2016-May-24 10:33N 39°33' E 002°38'0 0.0
2016-May-24 09:33N 39°33' E 002°38'0 0.0
2016-May-24 08:33N 39°33' E 002°38'0 0.0
2016-May-24 07:33N 39°33' E 002°38'0 0.0
2016-May-24 06:33N 39°33' E 002°38'0 0.0
2016-May-24 05:33N 39°33' E 002°38'0 0.0
2016-May-24 04:33N 39°33' E 002°38'0 0.0
2016-May-24 03:33N 39°33' E 002°38'7 7.0
2016-May-24 02:34N 39°27' E 002°34'1413.8
2016-May-24 01:33N 39°33' E 002°17'1514.7
2016-May-24 00:33N 39°47' E 002°14'1616.2
2016-May-23 23:33N 40°03' E 002°14'1211.6
2016-May-23 22:33N 40°15' E 002°14'1111.3
2016-May-23 21:33N 40°26' E 002°14'1111.0
2016-May-23 20:33N 40°37' E 002°13'1111.1
2016-May-23 19:33N 40°48' E 002°13'1211.9
2016-May-23 18:33N 41°00' E 002°13'1211.8
2016-May-23 17:33N 41°12' E 002°14'1010.4
2016-May-23 16:33N 41°22' E 002°11'0 0.2
2016-May-23 15:24N 41°22' E 002°11'0 0.0
2016-May-23 14:33N 41°22' E 002°11'0 0.0
2016-May-23 13:33N 41°22' E 002°11'157 7.8
2016-May-22 17:33N 43°07' E 004°48'1312.8
2016-May-22 16:33N 43°11' E 005°05'1313.1
2016-May-22 15:33N 43°20' E 005°17'2 1.5
2016-May-22 14:10N 43°21' E 005°20'0 0.0
2016-May-22 13:25N 43°21' E 005°20'0 0.0
2016-May-22 12:28N 43°21' E 005°20'0 0.0
2016-May-22 11:28N 43°21' E 005°20'0 0.0
2016-May-22 10:28N 43°21' E 005°20'0 0.0
2016-May-22 09:31N 43°21' E 005°20'0 0.0
2016-May-22 08:28N 43°21' E 005°20'0 0.0
2016-May-22 07:31N 43°21' E 005°20'0 0.0
2016-May-22 06:31N 43°21' E 005°20'0 0.0
2016-May-22 05:31N 43°21' E 005°20'5 4.7
2016-May-22 04:33N 43°17' E 005°16'2612.1
2016-May-22 02:27N 43°00' E 005°43'1213.4
2016-May-22 01:33N 42°56' E 005°58'1413.5
2016-May-22 00:33N 42°52' E 006°16'1513.8
2016-May-21 23:28N 42°50' E 006°36'1313.3
2016-May-21 22:29N 42°48' E 006°53'1213.1
2016-May-21 21:33N 42°46' E 007°10'1312.7
2016-May-21 20:33N 42°44' E 007°27'1212.3
2016-May-21 19:33N 42°42' E 007°44'1212.1
2016-May-21 18:33N 42°40' E 007°60'1212.4
2016-May-21 17:33N 42°39' E 008°17'1312.5
2016-May-21 16:33N 42°37' E 008°33'10 9.8
2016-May-21 15:33N 42°34' E 008°46'0 0.0
2016-May-21 14:33N 42°34' E 008°46'0 0.0
2016-May-21 13:33N 42°34' E 008°46'0 0.0
2016-May-21 12:33N 42°34' E 008°46'0 0.0
2016-May-21 11:34N 42°34' E 008°46'0 0.0
2016-May-21 10:33N 42°34' E 008°46'0 0.0
2016-May-21 09:34N 42°34' E 008°46'0 0.0
2016-May-21 08:33N 42°34' E 008°46'0 0.0
2016-May-21 07:33N 42°34' E 008°46'0 0.0
2016-May-21 06:33N 42°34' E 008°46'0 0.0
2016-May-21 05:24N 42°34' E 008°46'0 0.1
2016-May-21 04:33N 42°34' E 008°46'9 9.5
2016-May-21 03:33N 42°42' E 008°53'8 8.5
2016-May-21 02:33N 42°49' E 008°60'8 8.2
2016-May-21 01:33N 42°55' E 009°07'8 8.5
2016-May-21 00:33N 43°02' E 009°14'9 8.6
2016-May-20 23:33N 43°07' E 009°23'7 7.4
2016-May-20 22:33N 43°10' E 009°33'7 7.3
2016-May-20 21:33N 43°13' E 009°42'7 7.2
2016-May-20 20:33N 43°16' E 009°51'7 7.3
2016-May-20 19:33N 43°20' E 009°59'8 7.6
2016-May-20 18:33N 43°26' E 010°06'8 7.9
2016-May-20 17:33N 43°31' E 010°14'3 3.3
2016-May-20 16:32N 43°33' E 010°18'0 0.0
2016-May-20 15:32N 43°33' E 010°18'0 0.0
2016-May-20 14:32N 43°33' E 010°18'0 0.0
2016-May-20 13:32N 43°33' E 010°18'0 0.0
2016-May-20 12:32N 43°33' E 010°18'0 0.0
2016-May-20 11:29N 43°33' E 010°18'0 0.0
2016-May-20 10:32N 43°33' E 010°18'0 0.0
2016-May-20 09:32N 43°33' E 010°18'0 0.0
2016-May-20 08:32N 43°33' E 010°18'0 0.0
2016-May-20 07:32N 43°33' E 010°18'0 0.0
2016-May-20 06:32N 43°33' E 010°18'0 0.0
2016-May-20 05:32N 43°33' E 010°18'0 0.0
2016-May-20 04:32N 43°33' E 010°18'5 5.3
2016-May-20 03:33N 43°30' E 010°12'9 8.7
2016-May-20 02:33N 43°30' E 009°60'1110.8
2016-May-20 01:33N 43°31' E 009°45'1110.9
2016-May-20 00:33N 43°32' E 009°30'1110.9
2016-May-19 23:33N 43°33' E 009°15'1212.0
2016-May-19 22:33N 43°34' E 008°58'1212.3
2016-May-19 21:33N 43°35' E 008°41'1312.6
2016-May-19 20:33N 43°36' E 008°24'1312.5
2016-May-19 19:33N 43°37' E 008°07'2311.5
2016-May-19 17:33N 43°39' E 007°35'1211.8
2016-May-19 16:33N 43°40' E 007°19'1 1.3
2016-May-19 15:29N 43°41' E 007°19'0 0.1
2016-May-19 14:17N 43°41' E 007°19'0 0.1
2016-May-19 13:23N 43°41' E 007°19'0 0.2
2016-May-19 12:29N 43°41' E 007°19'0 0.1
2016-May-19 11:29N 43°41' E 007°19'0 0.0
2016-May-19 10:29N 43°41' E 007°19'0 0.0
2016-May-19 09:29N 43°41' E 007°19'0 0.0
2016-May-19 08:29N 43°41' E 007°19'0 0.1
2016-May-19 07:29N 43°41' E 007°19'0 0.1
2016-May-19 06:29N 43°41' E 007°19'0 0.0
2016-May-19 04:33N 43°41' E 007°19'9 8.9
2016-May-19 03:33N 43°33' E 007°16'1111.2
2016-May-19 02:33N 43°24' E 007°06'13811.1
2016-May-18 14:08N 41°44' E 004°57'8011.9
2016-May-18 07:23N 40°46' E 003°43'1111.8
2016-May-18 06:29N 40°38' E 003°34'1111.8
2016-May-18 05:33N 40°30' E 003°24'1211.8
2016-May-18 04:34N 40°21' E 003°13'1212.0
2016-May-18 03:34N 40°13' E 003°02'1212.4
2016-May-18 02:33N 40°04' E 002°51'1212.4
2016-May-18 01:34N 39°55' E 002°40'1211.9
2016-May-18 00:33N 39°46' E 002°29'1211.7
2016-May-17 23:33N 39°38' E 002°19'1010.0
2016-May-17 22:33N 39°29' E 002°24'9 9.4
2016-May-17 21:33N 39°30' E 002°36'3 3.3
2016-May-17 20:31N 39°33' E 002°38'0 0.0
2016-May-17 19:31N 39°33' E 002°38'0 0.0
2016-May-17 18:31N 39°33' E 002°38'0 0.0
2016-May-17 17:31N 39°33' E 002°38'0 0.0
2016-May-17 16:31N 39°33' E 002°38'0 0.0
2016-May-17 15:31N 39°33' E 002°38'0 0.0
2016-May-17 14:31N 39°33' E 002°38'0 0.0
2016-May-17 13:28N 39°33' E 002°38'0 0.0
2016-May-17 12:31N 39°33' E 002°38'0 0.0
2016-May-17 11:31N 39°33' E 002°38'0 0.0
2016-May-17 10:31N 39°33' E 002°38'0 0.0
2016-May-17 09:31N 39°33' E 002°38'0 0.0
2016-May-17 08:31N 39°33' E 002°38'0 0.0
2016-May-17 07:31N 39°33' E 002°38'0 0.0
2016-May-17 06:31N 39°33' E 002°38'0 0.0
2016-May-17 05:28N 39°33' E 002°38'0 0.0
2016-May-17 04:33N 39°33' E 002°38'0 0.0
2016-May-17 03:33N 39°33' E 002°38'9 9.0
2016-May-17 02:33N 39°25' E 002°42'1111.1
2016-May-17 01:33N 39°17' E 002°53'1110.9
2016-May-17 00:33N 39°15' E 003°06'1312.5
2016-May-16 23:29N 39°21' E 003°21'1212.6
2016-May-16 22:33N 39°27' E 003°35'1411.9
2016-May-16 21:21N 39°34' E 003°51'1011.8
2016-May-16 20:31N 39°39' E 004°02'  

Dump ship's entire track history